createdAt,value
2023-04-04T00:00:57.544Z,99950.44
2023-04-04T00:03:44.359Z,99938.06
2023-04-04T00:06:30.723Z,99953.16
2023-04-04T00:09:17.205Z,99945.72
2023-04-04T00:12:04.304Z,99937.69
2023-04-04T00:14:51.273Z,99923.31
2023-04-04T00:17:38.016Z,99937.69
2023-04-04T00:20:24.821Z,99934.91
2023-04-04T00:23:11.232Z,99929.63
2023-04-04T00:25:57.655Z,99909.66
2023-04-04T00:28:46.019Z,99929.28
2023-04-04T00:31:34.845Z,99927.47
2023-04-04T00:34:21.562Z,99921.38
2023-04-04T00:37:08.076Z,99922.78
2023-04-04T00:39:55.778Z,99924.47
2023-04-04T00:42:42.376Z,99919.47
2023-04-04T00:45:28.775Z,99915.25
2023-04-04T00:48:15.789Z,99911.09
2023-04-04T00:51:02.555Z,99917.88
2023-04-04T00:53:50.957Z,99895.06
2023-04-04T00:56:39.914Z,99919.09
2023-04-04T00:59:30.132Z,99901.41
2023-04-04T01:02:16.922Z,99905.69
2023-04-04T01:05:04.279Z,99910.78
2023-04-04T01:07:50.594Z,99904.19
2023-04-04T01:10:37.597Z,99899.53
2023-04-04T01:13:24.171Z,99903.50
2023-04-04T01:16:12.264Z,99910.91
2023-04-04T01:18:59.448Z,99908.19
2023-04-04T01:21:47.432Z,99910.91
2023-04-04T01:24:39.182Z,99906.31
2023-04-04T01:27:26.087Z,99906.81
2023-04-04T01:30:19.265Z,99896.06
2023-04-04T01:33:10.901Z,99903.00
2023-04-04T01:36:18.850Z,99904.47
2023-04-04T01:39:15.066Z,99878.28
2023-04-04T01:42:03.332Z,99904.00
2023-04-04T01:44:57.669Z,99892.47
2023-04-04T01:47:49.545Z,99889.16
2023-04-04T01:50:40.041Z,99889.19
2023-04-04T01:53:27.693Z,99879.03
2023-04-04T01:56:14.512Z,99885.63
2023-04-04T01:59:01.554Z,99888.78
2023-04-04T02:01:48.400Z,99878.00
2023-04-04T02:04:35.089Z,99884.38
2023-04-04T02:07:21.542Z,99881.16
2023-04-04T02:10:08.702Z,99800.56
2023-04-04T02:12:55.419Z,99884.06
2023-04-04T02:15:42.786Z,99890.06
2023-04-04T02:18:29.600Z,99893.66
2023-04-04T02:21:16.269Z,99892.78
2023-04-04T02:24:03.241Z,99889.09
2023-04-04T02:26:49.787Z,99892.34
2023-04-04T02:29:36.378Z,99886.75
2023-04-04T02:32:23.733Z,99892.09
2023-04-04T02:35:11.429Z,99890.84
2023-04-04T02:37:58.133Z,99888.63
2023-04-04T02:40:53.970Z,99886.13
2023-04-04T02:43:41.106Z,99883.13
2023-04-04T02:46:29.039Z,99889.56
2023-04-04T02:49:21.550Z,99893.84
2023-04-04T02:52:09.771Z,99888.03
2023-04-04T02:55:00.454Z,99885.69
2023-04-04T02:57:54.509Z,99881.38
2023-04-04T03:00:40.860Z,99876.44
2023-04-04T03:03:27.725Z,99882.06
2023-04-04T03:06:15.012Z,99874.16
2023-04-04T03:09:04.484Z,99877.50
2023-04-04T03:11:51.705Z,99867.16
2023-04-04T03:14:38.505Z,99877.22
2023-04-04T03:17:25.918Z,99871.19
2023-04-04T03:20:13.773Z,99876.06
2023-04-04T03:23:00.408Z,99865.06
2023-04-04T03:25:47.482Z,99882.50
2023-04-04T03:28:34.133Z,99882.88
2023-04-04T03:31:21.477Z,99876.63
2023-04-04T03:34:09.642Z,99860.09
2023-04-04T03:36:57.584Z,99865.34
2023-04-04T03:39:44.712Z,99882.28
2023-04-04T03:42:34.771Z,99876.06
2023-04-04T03:45:25.842Z,99863.78
2023-04-04T03:48:12.749Z,99878.59
2023-04-04T03:51:00.476Z,99881.06
2023-04-04T03:53:46.924Z,99882.69
2023-04-04T03:56:33.321Z,99879.00
2023-04-04T03:59:24.898Z,99882.47
2023-04-04T04:02:12.367Z,99851.88
2023-04-04T04:04:58.993Z,99882.25
2023-04-04T04:07:45.628Z,99886.00
2023-04-04T04:10:33.521Z,99893.41
2023-04-04T04:13:21.526Z,99887.84
2023-04-04T04:16:08.387Z,99874.84
2023-04-04T04:18:55.851Z,99896.97
2023-04-04T04:21:57.493Z,99887.59
2023-04-04T04:24:43.908Z,99889.53
2023-04-04T04:27:30.955Z,99901.56
2023-04-04T04:30:17.241Z,99900.34
2023-04-04T04:33:05.766Z,99890.88
2023-04-04T04:36:04.744Z,99896.50
2023-04-04T04:39:01.928Z,99896.78
2023-04-04T04:41:53.214Z,99799.56
2023-04-04T04:44:42.829Z,99891.03
2023-04-04T04:47:30.972Z,99898.97
2023-04-04T04:50:17.749Z,99889.00
2023-04-04T04:53:08.486Z,99895.31
2023-04-04T04:55:55.268Z,99897.56
2023-04-04T04:58:41.943Z,99893.78
2023-04-04T05:01:30.747Z,99893.16
2023-04-04T05:04:17.712Z,99907.41
2023-04-04T05:07:17.057Z,99900.75
2023-04-04T05:10:06.373Z,99911.59
2023-04-04T05:12:52.917Z,99902.91
2023-04-04T05:15:42.902Z,99899.81
2023-04-04T05:18:29.409Z,99902.66
2023-04-04T05:21:16.282Z,99909.81
2023-04-04T05:24:04.339Z,99912.72
2023-04-04T05:26:51.952Z,99909.00
2023-04-04T05:29:40.466Z,99893.13
2023-04-04T05:32:27.060Z,99911.25
2023-04-04T05:35:23.172Z,99902.34
2023-04-04T05:38:10.009Z,99905.06
2023-04-04T05:40:56.634Z,99910.38
2023-04-04T05:43:44.404Z,99913.38
2023-04-04T05:46:35.126Z,99923.38
2023-04-04T05:49:22.024Z,99915.28
2023-04-04T05:52:16.249Z,99912.13
2023-04-04T05:55:03.182Z,99915.19
2023-04-04T05:57:52.109Z,99918.13
2023-04-04T06:00:44.582Z,99910.59
2023-04-04T06:03:31.895Z,99907.44
2023-04-04T06:06:20.016Z,99894.25
2023-04-04T06:09:08.922Z,99924.03
2023-04-04T06:11:55.514Z,99920.94
2023-04-04T06:14:42.447Z,99924.78
2023-04-04T06:17:30.334Z,99925.31
2023-04-04T06:20:19.144Z,99911.88
2023-04-04T06:23:06.090Z,99911.69
2023-04-04T06:25:55.450Z,99919.97
2023-04-04T06:28:52.514Z,99924.78
2023-04-04T06:31:45.495Z,99914.66
2023-04-04T06:34:39.060Z,99929.94
2023-04-04T06:37:26.311Z,99898.00
2023-04-04T06:40:19.758Z,99904.69
2023-04-04T06:43:06.643Z,99899.44
2023-04-04T06:45:59.883Z,99905.69
2023-04-04T06:48:46.100Z,99906.66
2023-04-04T06:51:34.300Z,99903.00
2023-04-04T06:54:20.905Z,99882.47
2023-04-04T06:57:07.138Z,99907.31
2023-04-04T06:59:53.977Z,99914.66
2023-04-04T07:02:40.850Z,99914.72
2023-04-04T07:05:27.875Z,99917.69
2023-04-04T07:08:14.705Z,99904.31
2023-04-04T07:11:01.829Z,99911.63
2023-04-04T07:13:48.307Z,99893.84
2023-04-04T07:16:36.492Z,99907.47
2023-04-04T07:19:24.539Z,99901.25
2023-04-04T07:22:14.814Z,99917.78
2023-04-04T07:25:01.200Z,99914.72
2023-04-04T07:27:47.644Z,99917.72
2023-04-04T07:30:33.984Z,99895.41
2023-04-04T07:33:21.170Z,99900.47
2023-04-04T07:36:07.761Z,99911.03
2023-04-04T07:38:55.123Z,99874.88
2023-04-04T07:41:41.910Z,99888.91
2023-04-04T07:44:28.395Z,99885.22
2023-04-04T07:47:16.230Z,99900.41
2023-04-04T07:50:02.717Z,99902.25
2023-04-04T07:52:52.670Z,99877.59
2023-04-04T07:55:39.089Z,99900.47
2023-04-04T07:58:25.578Z,99896.84
2023-04-04T08:01:12.177Z,99882.38
2023-04-04T08:03:59.043Z,99897.38
2023-04-04T08:06:45.848Z,99868.94
2023-04-04T08:09:34.458Z,99888.22
2023-04-04T08:12:21.229Z,99883.88
2023-04-04T08:15:07.930Z,99889.28
2023-04-04T08:17:56.167Z,99887.72
2023-04-04T08:20:42.780Z,99890.03
2023-04-04T08:23:30.575Z,99889.94
2023-04-04T08:26:17.223Z,99893.97
2023-04-04T08:29:03.680Z,99875.38
2023-04-04T08:31:50.208Z,99887.25
2023-04-04T08:34:37.476Z,99876.56
2023-04-04T08:37:24.006Z,99884.72
2023-04-04T08:40:10.829Z,99885.03
2023-04-04T08:42:58.723Z,99885.81
2023-04-04T08:45:46.953Z,99846.63
2023-04-04T08:48:33.976Z,99886.50
2023-04-04T08:51:22.088Z,99888.16
2023-04-04T08:54:10.492Z,99889.47
2023-04-04T08:56:58.035Z,99886.59
2023-04-04T08:59:44.735Z,99889.59
2023-04-04T09:02:44.350Z,99892.84
2023-04-04T09:05:31.059Z,99886.91
2023-04-04T09:08:18.371Z,99889.34
2023-04-04T09:11:06.283Z,99880.25
2023-04-04T09:13:57.038Z,99890.81
2023-04-04T09:16:44.530Z,99886.91
2023-04-04T09:19:31.228Z,99889.38
2023-04-04T09:22:17.749Z,99880.41
2023-04-04T09:25:08.502Z,99880.59
2023-04-04T09:27:56.033Z,99892.59
2023-04-04T09:30:43.269Z,99873.03
2023-04-04T09:33:31.678Z,99889.09
2023-04-04T09:36:18.783Z,99883.22
2023-04-04T09:39:06.083Z,99890.63
2023-04-04T09:41:54.531Z,99885.25
2023-04-04T09:44:43.100Z,99881.22
2023-04-04T09:47:31.938Z,99884.19
2023-04-04T09:50:23.690Z,99882.41
2023-04-04T09:53:17.009Z,99878.84
2023-04-04T09:56:03.685Z,99890.53
2023-04-04T09:59:02.577Z,99880.69
2023-04-04T10:01:52.394Z,99872.28
2023-04-04T10:04:38.952Z,99881.84
2023-04-04T10:07:27.414Z,99881.59
2023-04-04T10:10:15.500Z,99874.63
2023-04-04T10:13:03.798Z,99884.75
2023-04-04T10:15:52.222Z,99881.84
2023-04-04T10:18:39.504Z,99883.56
2023-04-04T10:21:27.889Z,99870.97
2023-04-04T10:24:14.527Z,99872.50
2023-04-04T10:27:02.110Z,99866.66
2023-04-04T10:29:50.034Z,99868.72
2023-04-04T10:32:53.230Z,99860.38
2023-04-04T10:35:44.106Z,99853.69
2023-04-04T10:38:42.111Z,99858.16
2023-04-04T10:41:32.900Z,99841.94
2023-04-04T10:44:39.572Z,99860.91
2023-04-04T10:47:29.327Z,99861.13
2023-04-04T10:50:15.961Z,99846.63
2023-04-04T10:53:04.519Z,99856.91
2023-04-04T10:55:52.515Z,99847.91
2023-04-04T10:58:42.630Z,99851.06
2023-04-04T11:02:00.969Z,99850.31
2023-04-04T11:04:47.977Z,99846.75
2023-04-04T11:07:36.830Z,99828.81
2023-04-04T11:10:30.991Z,99840.03
2023-04-04T11:13:31.862Z,99840.88
2023-04-04T11:16:21.154Z,99843.06
2023-04-04T11:19:09.197Z,99840.59
2023-04-04T11:21:57.603Z,99825.50
2023-04-04T11:24:44.575Z,99812.44
2023-04-04T11:27:30.944Z,99838.16
2023-04-04T11:30:17.421Z,99821.94
2023-04-04T11:33:07.875Z,99825.19
2023-04-04T11:35:59.674Z,99792.38
2023-04-04T11:38:49.600Z,99832.31
2023-04-04T11:41:57.546Z,99832.69
2023-04-04T11:44:56.696Z,99824.09
2023-04-04T11:47:47.561Z,99807.19
2023-04-04T11:50:39.654Z,99809.53
2023-04-04T11:53:26.688Z,99819.16
2023-04-04T11:56:16.393Z,99813.13
2023-04-04T11:59:11.711Z,99813.22
2023-04-04T12:02:00.549Z,99792.84
2023-04-04T12:04:48.175Z,99792.38
2023-04-04T12:07:35.577Z,99793.78
2023-04-04T12:10:22.331Z,99779.28
2023-04-04T12:13:09.851Z,99774.41
2023-04-04T12:15:57.269Z,99783.91
2023-04-04T12:18:45.122Z,99773.91
2023-04-04T12:21:33.324Z,99790.59
2023-04-04T12:24:20.707Z,99764.13
2023-04-04T12:27:07.652Z,99781.06
2023-04-04T12:29:54.634Z,99796.16
2023-04-04T12:32:50.131Z,99764.47
2023-04-04T12:35:37.930Z,99791.50
2023-04-04T12:38:24.839Z,99783.69
2023-04-04T12:41:17.612Z,99761.34
2023-04-04T12:44:05.997Z,99773.09
2023-04-04T12:46:52.883Z,99759.56
2023-04-04T12:49:40.317Z,99777.19
2023-04-04T12:52:32.641Z,99777.38
2023-04-04T12:55:22.755Z,99783.63
2023-04-04T12:58:09.188Z,99768.00
2023-04-04T13:00:59.610Z,99755.84
2023-04-04T13:03:46.067Z,99765.75
2023-04-04T13:06:33.085Z,99761.84
2023-04-04T13:09:23.885Z,99759.28
2023-04-04T13:12:12.267Z,99764.66
2023-04-04T13:15:11.579Z,99758.09
2023-04-04T13:18:14.259Z,99756.84
2023-04-04T13:21:01.071Z,99757.31
2023-04-04T13:23:47.504Z,99725.16
2023-04-04T13:26:33.877Z,99730.59
2023-04-04T13:29:21.570Z,99726.72
2023-04-04T13:32:08.173Z,99734.50
2023-04-04T13:34:54.885Z,99726.78
2023-04-04T13:37:41.155Z,99719.13
2023-04-04T13:40:27.762Z,99730.50
2023-04-04T13:43:15.310Z,99722.88
2023-04-04T13:46:02.263Z,99725.31
2023-04-04T13:48:48.886Z,99712.81
2023-04-04T13:51:35.498Z,99721.75
2023-04-04T13:54:22.128Z,99715.44
2023-04-04T13:57:08.665Z,99723.13
2023-04-04T13:59:56.663Z,99712.41
2023-04-04T14:02:43.468Z,99704.94
2023-04-04T14:05:29.986Z,99652.88
2023-04-04T14:08:16.486Z,99709.75
2023-04-04T14:11:03.219Z,99730.66
2023-04-04T14:13:52.086Z,99716.78
2023-04-04T14:16:38.659Z,99706.75
2023-04-04T14:19:25.726Z,99707.09
2023-04-04T14:22:12.272Z,99696.09
2023-04-04T14:24:58.843Z,99703.59
2023-04-04T14:27:45.451Z,99715.50
2023-04-04T14:30:31.868Z,99703.09
2023-04-04T14:33:18.629Z,99703.59
2023-04-04T14:36:05.057Z,99700.72
2023-04-04T14:38:51.450Z,99690.84
2023-04-04T14:41:37.883Z,99707.00
2023-04-04T14:44:25.154Z,99698.38
2023-04-04T14:47:11.842Z,99695.59
2023-04-04T14:49:59.045Z,99701.59
2023-04-04T14:52:48.037Z,99697.59
2023-04-04T14:55:34.735Z,99694.88
2023-04-04T14:58:20.948Z,99680.44
2023-04-04T15:01:08.486Z,99703.25
2023-04-04T15:03:56.237Z,99684.63
2023-04-04T15:06:43.617Z,99696.50
2023-04-04T15:09:32.972Z,99682.06
2023-04-04T15:12:19.376Z,99687.63
2023-04-04T15:15:06.530Z,99690.69
2023-04-04T15:17:53.322Z,99697.59
2023-04-04T15:20:40.534Z,99684.56
2023-04-04T15:23:27.271Z,99699.44
2023-04-04T15:26:13.558Z,99689.78
2023-04-04T15:28:59.961Z,99679.03
2023-04-04T15:31:47.705Z,99675.50
2023-04-04T15:34:34.284Z,99679.19
2023-04-04T15:37:21.150Z,99690.34
2023-04-04T15:40:08.216Z,99685.97
2023-04-04T15:42:56.917Z,99675.91
2023-04-04T15:45:43.336Z,99669.59
2023-04-04T15:48:30.055Z,99674.59
2023-04-04T15:51:17.022Z,99653.53
2023-04-04T15:54:03.454Z,99668.41
2023-04-04T15:56:49.998Z,99664.97
2023-04-04T15:59:37.412Z,99671.63
2023-04-04T16:02:23.944Z,99670.06
2023-04-04T16:05:11.084Z,99658.91
2023-04-04T16:07:57.429Z,99667.50
2023-04-04T16:10:44.719Z,99669.28
2023-04-04T16:13:31.203Z,99659.78
2023-04-04T16:16:18.124Z,99653.22
2023-04-04T16:19:04.696Z,99653.19
2023-04-04T16:21:51.242Z,99660.84
2023-04-04T16:24:37.982Z,99656.56
2023-04-04T16:27:24.747Z,99655.63
2023-04-04T16:30:11.919Z,99652.78
2023-04-04T16:32:58.778Z,99651.25
2023-04-04T16:35:45.011Z,99646.03
2023-04-04T16:38:31.247Z,99659.13
2023-04-04T16:41:17.555Z,99651.25
2023-04-04T16:44:04.419Z,99652.72
2023-04-04T16:46:50.922Z,99660.50
2023-04-04T16:49:37.412Z,99649.44
2023-04-04T16:52:23.854Z,99648.22
2023-04-04T16:55:10.285Z,99632.41
2023-04-04T16:57:56.837Z,99646.91
2023-04-04T17:00:43.363Z,99637.28
2023-04-04T17:03:30.905Z,99616.88
2023-04-04T17:06:17.669Z,99646.19
2023-04-04T17:09:04.198Z,99649.22
2023-04-04T17:11:50.504Z,99632.66
2023-04-04T17:14:37.565Z,99647.13
2023-04-04T17:17:24.025Z,99641.81
2023-04-04T17:20:17.344Z,99638.34
2023-04-04T17:23:04.654Z,99639.81
2023-04-04T17:25:51.055Z,99651.00
2023-04-04T17:28:37.724Z,99625.75
2023-04-04T17:31:24.551Z,99628.25
2023-04-04T17:34:12.901Z,99651.44
2023-04-04T17:36:59.741Z,99646.97
2023-04-04T17:39:46.339Z,99621.56
2023-04-04T17:42:32.655Z,99649.16
2023-04-04T17:45:19.373Z,99646.38
2023-04-04T17:48:06.509Z,99644.63
2023-04-04T17:50:53.078Z,99637.38
2023-04-04T17:53:39.669Z,99597.94
2023-04-04T17:56:27.148Z,99644.47
2023-04-04T17:59:14.808Z,99643.72
2023-04-04T18:02:01.200Z,99644.38
2023-04-04T18:04:47.875Z,99646.59
2023-04-04T18:07:34.198Z,99635.31
2023-04-04T18:10:21.072Z,99639.72
2023-04-04T18:13:07.742Z,99635.94
2023-04-04T18:15:54.416Z,99631.56
2023-04-04T18:18:41.360Z,99633.72
2023-04-04T18:21:27.862Z,99646.72
2023-04-04T18:24:14.360Z,99633.34
2023-04-04T18:27:00.945Z,99646.44
2023-04-04T18:29:47.118Z,99634.63
2023-04-04T18:32:33.892Z,99645.69
2023-04-04T18:35:20.721Z,99659.97
2023-04-04T18:38:07.199Z,99643.28
2023-04-04T18:40:55.221Z,99653.88
2023-04-04T18:43:41.656Z,99658.66
2023-04-04T18:46:28.084Z,99664.34
2023-04-04T18:49:14.787Z,99665.03
2023-04-04T18:52:01.415Z,99674.94
2023-04-04T18:54:47.686Z,99655.47
2023-04-04T18:57:34.560Z,99674.69
2023-04-04T19:00:21.198Z,99673.75
2023-04-04T19:03:07.908Z,99671.50
2023-04-04T19:05:55.530Z,99679.28
2023-04-04T19:08:43.177Z,99682.47
2023-04-04T19:11:31.120Z,99684.03
2023-04-04T19:14:19.332Z,99684.22
2023-04-04T19:17:05.777Z,99689.34
2023-04-04T19:19:52.102Z,99683.78
2023-04-04T19:22:38.550Z,99677.63
2023-04-04T19:25:25.688Z,99695.47
2023-04-04T19:28:11.937Z,99684.94
2023-04-04T19:30:58.467Z,99694.72
2023-04-04T19:33:45.055Z,99700.44
2023-04-04T19:36:36.809Z,99700.50
2023-04-04T19:39:30.465Z,99686.69
2023-04-04T19:42:24.383Z,99698.44
2023-04-04T19:45:12.949Z,99696.63
2023-04-04T19:48:00.779Z,99677.72
2023-04-04T19:50:47.317Z,99694.59
2023-04-04T19:53:34.099Z,99690.72
2023-04-04T19:56:22.779Z,99700.25
2023-04-04T19:59:40.748Z,99699.56
2023-04-04T20:02:27.411Z,99700.81
2023-04-04T20:05:29.367Z,99700.59
2023-04-04T20:08:16.390Z,99681.88
2023-04-04T20:11:05.444Z,99704.16
2023-04-04T20:13:51.957Z,99704.19
2023-04-04T20:16:38.897Z,99687.91
2023-04-04T20:19:27.602Z,99708.00
2023-04-04T20:22:14.492Z,99702.59
2023-04-04T20:25:01.842Z,99710.78
2023-04-04T20:27:47.961Z,99710.28
2023-04-04T20:30:34.566Z,99710.31
2023-04-04T20:33:39.604Z,99710.25
2023-04-04T20:36:27.673Z,99707.88
2023-04-04T20:39:43.900Z,99710.56
2023-04-04T20:42:40.242Z,99713.28
2023-04-04T20:45:26.629Z,99715.31
2023-04-04T20:48:37.933Z,99719.97
2023-04-04T20:51:32.270Z,99722.94
2023-04-04T20:54:18.810Z,99717.38
2023-04-04T20:57:05.201Z,99715.94
2023-04-04T20:59:51.624Z,99708.53
2023-04-04T21:02:38.485Z,99706.72
2023-04-04T21:05:36.608Z,99717.94
2023-04-04T21:08:24.115Z,99719.63
2023-04-04T21:11:12.546Z,99685.13
2023-04-04T21:13:59.164Z,99706.13
2023-04-04T21:16:45.741Z,99717.09
2023-04-04T21:19:32.164Z,99717.56
2023-04-04T21:22:19.159Z,99723.53
2023-04-04T21:25:26.102Z,99720.72
2023-04-04T21:28:13.172Z,99725.50
2023-04-04T21:31:00.600Z,99727.00
2023-04-04T21:33:49.622Z,99723.97
2023-04-04T21:36:36.638Z,99735.16
2023-04-04T21:39:31.156Z,99722.06
2023-04-04T21:42:18.638Z,99729.03
2023-04-04T21:45:05.576Z,99722.28
2023-04-04T21:47:51.850Z,99730.69
2023-04-04T21:50:38.548Z,99735.44
2023-04-04T21:53:25.062Z,99721.06
2023-04-04T21:56:12.174Z,99732.84
2023-04-04T21:59:00.515Z,99728.28
2023-04-04T22:01:47.048Z,99721.28
2023-04-04T22:04:33.810Z,99726.81
2023-04-04T22:07:20.589Z,99721.06
2023-04-04T22:10:09.467Z,99723.53
2023-04-04T22:12:59.461Z,99719.09
2023-04-04T22:15:47.117Z,99714.47
2023-04-04T22:18:34.708Z,99727.28
2023-04-04T22:21:26.080Z,99727.41
2023-04-04T22:24:13.639Z,99715.78
2023-04-04T22:27:03.817Z,99726.53
2023-04-04T22:29:50.293Z,99725.31
2023-04-04T22:32:39.173Z,99712.72
2023-04-04T22:35:37.304Z,99726.81
2023-04-04T22:38:24.604Z,99722.78
2023-04-04T22:41:12.241Z,99718.91
2023-04-04T22:43:58.660Z,99722.78
2023-04-04T22:46:47.896Z,99724.34
2023-04-04T22:49:37.846Z,99729.59
2023-04-04T22:52:26.477Z,99726.28
2023-04-04T22:55:16.514Z,99729.59
2023-04-04T22:58:02.810Z,99722.69
2023-04-04T23:00:49.309Z,99726.63
2023-04-04T23:03:35.732Z,99724.72
2023-04-04T23:06:22.007Z,99698.59
2023-04-04T23:09:08.657Z,99732.56
2023-04-04T23:11:56.154Z,99719.78
2023-04-04T23:14:42.575Z,99726.28
2023-04-04T23:17:29.561Z,99713.03
2023-04-04T23:20:18.229Z,99701.88
2023-04-04T23:23:04.591Z,99710.09
2023-04-04T23:25:51.591Z,99701.31
2023-04-04T23:28:38.196Z,99690.91
2023-04-04T23:31:25.901Z,99708.94
2023-04-04T23:34:12.242Z,99684.44
2023-04-04T23:36:58.940Z,99691.78
2023-04-04T23:39:47.371Z,99699.94
2023-04-04T23:42:33.552Z,99668.25
2023-04-04T23:45:21.205Z,99692.16
2023-04-04T23:48:07.828Z,99697.47
2023-04-04T23:50:56.444Z,99699.31
2023-04-04T23:53:43.651Z,99686.72
2023-04-04T23:56:30.022Z,99688.47
2023-04-04T23:59:16.695Z,99679.91
